Time;durP1;ratioP1;P1;durP2;ratioP2;P2;SDS_P1;SDS_P2;PMS_P1;PMS_P2;Temp;Humidity;BMP_temperature;BMP_pressure;BME280_temperature;BME280_humidity;BME280_pressure;Samples;Min_cycle;Max_cycle;Signal;HPM_P1;HPM_P2
2022/06/27 00:02:08;;;;;;;4.30;3.22;;;;;;;18.50;100.00;101226.19;6170300;28;20058;-75
2022/06/27 00:05:10;;;;;;;4.38;3.00;;;;;;;18.56;100.00;101212.41;6170001;28;20062;-75
2022/06/27 00:08:11;;;;;;;4.85;3.60;;;;;;;18.21;100.00;101215.16;6174747;28;20061;-75
2022/06/27 00:11:12;;;;;;;7.85;4.15;;;;;;;18.10;100.00;101217.81;6174210;28;20077;-76
2022/06/27 00:14:15;;;;;;;8.77;3.97;;;;;;;17.96;100.00;101198.47;6174113;28;20631;-75
2022/06/27 00:17:16;;;;;;;6.22;3.92;;;;;;;18.02;100.00;101177.66;6177543;28;20050;-75
2022/06/27 00:20:18;;;;;;;6.10;4.10;;;;;;;18.02;100.00;101170.53;6193995;28;20058;-75
2022/06/27 00:23:19;;;;;;;6.25;4.10;;;;;;;17.95;100.00;101172.84;6165682;28;20047;-75
2022/06/27 00:26:21;;;;;;;5.78;3.55;;;;;;;17.93;100.00;101198.69;6172426;28;20051;-75
2022/06/27 00:29:24;;;;;;;5.50;3.35;;;;;;;17.88;100.00;101258.50;6174117;28;20051;-75
2022/06/27 00:32:26;;;;;;;6.13;3.90;;;;;;;17.81;100.00;101273.25;6169129;28;20054;-75
2022/06/27 00:35:27;;;;;;;5.82;3.03;;;;;;;17.69;100.00;101232.44;6177625;28;20051;-75
2022/06/27 00:38:29;;;;;;;5.38;2.90;;;;;;;17.62;100.00;101207.28;6173932;28;20054;-75
2022/06/27 00:41:30;;;;;;;4.72;3.35;;;;;;;17.55;100.00;101188.28;6173701;28;20057;-75
2022/06/27 00:44:35;;;;;;;5.00;3.03;;;;;;;17.44;100.00;101169.66;6173306;28;20047;-76
2022/06/27 00:47:36;;;;;;;7.25;3.42;;;;;;;17.38;100.00;101162.16;6175276;28;20442;-76
2022/06/27 00:50:37;;;;;;;6.53;3.28;;;;;;;17.33;100.00;101161.66;6182760;28;20047;-76
2022/06/27 00:53:39;;;;;;;4.25;3.03;;;;;;;17.41;100.00;101153.94;6168099;28;20050;-75
2022/06/27 00:56:41;;;;;;;7.13;3.22;;;;;;;17.32;100.00;101160.81;6165740;28;20521;-75
2022/06/27 00:59:44;;;;;;;5.75;3.42;;;;;;;17.27;100.00;101167.44;6156881;28;20051;-76
2022/06/27 01:02:46;;;;;;;5.78;3.60;;;;;;;17.15;100.00;101161.22;6165702;28;20058;-75
2022/06/27 01:05:52;;;;;;;4.90;2.95;;;;;;;17.19;100.00;101150.25;6158779;28;20503;-76
2022/06/27 01:08:53;;;;;;;8.95;3.00;;;;;;;17.14;100.00;101143.59;6173510;28;20054;-75
2022/06/27 01:11:54;;;;;;;3.75;2.63;;;;;;;17.09;100.00;101140.44;6173225;28;20059;-76
2022/06/27 01:14:57;;;;;;;4.25;2.80;;;;;;;17.10;100.00;101185.44;6173466;28;20058;-75
2022/06/27 01:17:59;;;;;;;3.25;2.50;;;;;;;17.23;100.00;101225.25;6173483;28;20055;-76
2022/06/27 01:21:00;;;;;;;5.18;2.67;;;;;;;17.30;100.00;101217.66;6178206;28;20054;-76
2022/06/27 01:24:03;;;;;;;4.97;3.08;;;;;;;17.18;100.00;101190.22;6173057;28;20074;-77
2022/06/27 01:27:05;;;;;;;4.78;2.92;;;;;;;17.21;100.00;101212.09;6173382;28;20051;-77
2022/06/27 01:30:08;;;;;;;5.82;2.65;;;;;;;17.30;100.00;101217.66;6173005;28;20442;-77
2022/06/27 01:33:09;;;;;;;2.47;2.08;;;;;;;17.29;100.00;101211.50;6175246;28;20050;-76
2022/06/27 01:39:31;;;;;;;3.92;2.60;;;;;;;17.21;100.00;101216.53;6155408;28;20047;-76
2022/06/27 01:42:33;;;;;;;3.65;2.70;;;;;;;17.18;100.00;101200.84;6153385;28;20062;-77
2022/06/27 01:45:34;;;;;;;4.35;2.47;;;;;;;17.22;100.00;101211.13;6153443;29;20051;-77
2022/06/27 01:48:36;;;;;;;4.47;2.42;;;;;;;17.31;100.00;101198.13;6157639;28;20051;-76
2022/06/27 01:51:39;;;;;;;3.58;2.80;;;;;;;17.29;100.00;101178.78;6177531;28;20515;-77
2022/06/27 01:54:43;;;;;;;4.90;3.08;;;;;;;17.31;100.00;101174.22;6177469;28;20055;-77
2022/06/27 01:57:47;;;;;;;3.30;2.22;;;;;;;17.27;100.00;101183.38;6177603;28;20065;-76
2022/06/27 02:00:48;;;;;;;3.33;2.38;;;;;;;17.28;100.00;101177.09;6177406;28;20502;-77
2022/06/27 02:03:49;;;;;;;4.97;2.88;;;;;;;17.27;100.00;101186.88;6177033;28;20050;-77
2022/06/27 02:06:51;;;;;;;4.03;2.78;;;;;;;17.43;100.00;101203.34;6177743;28;20047;-77
2022/06/27 02:09:54;;;;;;;4.43;2.90;;;;;;;17.52;100.00;101223.06;6176231;28;20077;-77
2022/06/27 02:12:56;;;;;;;3.72;2.47;;;;;;;17.51;100.00;101237.31;6176001;28;20573;-76
2022/06/27 02:16:05;;;;;;;4.15;2.60;;;;;;;17.41;100.00;101223.03;6175277;28;20433;-77
2022/06/27 02:19:07;;;;;;;4.35;2.80;;;;;;;17.39;100.00;101220.47;6175077;28;20043;-76
2022/06/27 02:22:09;;;;;;;4.78;2.63;;;;;;;17.29;100.00;101214.16;6176600;28;20506;-77
2022/06/27 02:25:12;;;;;;;3.20;2.45;;;;;;;17.32;100.00;101213.94;6176259;28;20047;-77
2022/06/27 02:28:14;;;;;;;4.63;2.60;;;;;;;17.45;100.00;101208.56;6174394;28;20054;-77
2022/06/27 02:31:15;;;;;;;4.22;3.20;;;;;;;17.33;100.00;101210.31;6176052;28;20055;-77
2022/06/27 02:34:17;;;;;;;4.63;3.08;;;;;;;17.40;100.00;101219.53;6176117;28;20057;-77
2022/06/27 02:37:19;;;;;;;4.55;3.08;;;;;;;17.32;100.00;101208.63;6176555;28;20392;-77
2022/06/27 02:40:23;;;;;;;4.13;3.30;;;;;;;17.34;100.00;101216.47;6176650;28;20051;-77
2022/06/27 02:43:26;;;;;;;5.07;3.60;;;;;;;17.36;100.00;101202.13;6176494;28;20050;-77
2022/06/27 02:46:28;;;;;;;7.18;4.07;;;;;;;17.10;100.00;101166.03;6171871;28;20058;-76
2022/06/27 02:49:30;;;;;;;9.45;4.13;;;;;;;16.98;100.00;101171.25;6174636;28;20077;-77
2022/06/27 02:52:36;;;;;;;5.18;3.40;;;;;;;16.83;100.00;101167.09;6177498;28;20047;-77
2022/06/27 02:55:41;;;;;;;6.15;3.72;;;;;;;16.83;100.00;101179.50;6175012;28;20061;-77
2022/06/27 02:58:52;;;;;;;6.05;3.45;;;;;;;16.77;100.00;101158.72;6172839;28;20055;-76
2022/06/27 03:01:56;;;;;;;7.55;4.90;;;;;;;16.75;100.00;101164.13;6151986;28;20055;-77
2022/06/27 03:04:58;;;;;;;6.32;4.05;;;;;;;16.89;100.00;101184.38;6157372;28;20050;-76
2022/06/27 03:08:00;;;;;;;5.82;3.72;;;;;;;16.98;100.00;101159.78;6175869;28;20061;-76
2022/06/27 03:11:03;;;;;;;6.10;3.53;;;;;;;16.83;100.00;101145.84;6156642;28;20418;-77
2022/06/27 03:14:04;;;;;;;6.03;3.85;;;;;;;16.76;100.00;101157.00;6158053;28;20046;-77
2022/06/27 03:17:05;;;;;;;6.18;3.40;;;;;;;16.76;100.00;101144.63;6164427;28;20518;-76
2022/06/27 03:20:07;;;;;;;6.55;4.15;;;;;;;16.87;100.00;101152.63;6174755;28;20061;-76
2022/06/27 03:23:09;;;;;;;10.38;3.83;;;;;;;16.82;100.00;101141.50;6175671;28;20051;-76
2022/06/27 03:26:12;;;;;;;8.13;3.92;;;;;;;16.84;100.00;101142.22;6175353;28;20050;-76
2022/06/27 03:29:13;;;;;;;8.77;4.18;;;;;;;16.72;100.00;101130.72;6163066;28;20051;-77
2022/06/27 03:32:15;;;;;;;5.07;3.20;;;;;;;16.83;100.00;101135.22;6151306;29;20066;-76
2022/06/27 03:35:17;;;;;;;6.80;4.18;;;;;;;16.71;100.00;101134.31;6151076;29;20051;-76
2022/06/27 03:38:18;;;;;;;7.00;4.28;;;;;;;16.75;100.00;101129.63;6151599;29;20058;-77
2022/06/27 03:41:21;;;;;;;10.05;3.78;;;;;;;16.87;100.00;101146.47;6150744;29;20431;-76
2022/06/27 03:44:22;;;;;;;4.65;3.78;;;;;;;16.98;100.00;101146.50;6150858;29;20069;-78
2022/06/27 03:47:24;;;;;;;8.30;4.28;;;;;;;16.99;100.00;101142.94;6155231;28;20065;-77
2022/06/27 03:50:25;;;;;;;4.32;3.28;;;;;;;17.02;100.00;101150.66;6185027;28;20058;-77
2022/06/27 03:53:27;;;;;;;5.53;3.97;;;;;;;17.01;100.00;101143.66;6160795;28;20616;-76
2022/06/27 03:56:30;;;;;;;6.88;3.60;;;;;;;16.96;100.00;101133.38;6149528;28;20055;-77
2022/06/27 03:59:31;;;;;;;6.50;4.00;;;;;;;16.90;100.00;101128.53;6150839;29;20381;-77
2022/06/27 04:02:33;;;;;;;5.63;3.42;;;;;;;16.93;100.00;101133.59;6150541;28;20055;-77
2022/06/27 04:05:34;;;;;;;4.63;3.00;;;;;;;17.05;100.00;101128.34;6150583;28;20487;-77
2022/06/27 04:08:36;;;;;;;3.63;2.90;;;;;;;16.96;100.00;101116.59;6150725;29;20058;-77
2022/06/27 04:11:38;;;;;;;5.45;3.40;;;;;;;16.84;100.00;101096.25;6150583;28;20075;-76
2022/06/27 04:14:40;;;;;;;5.32;3.00;;;;;;;16.88;100.00;101098.56;6150325;29;20062;-76
2022/06/27 04:17:41;;;;;;;6.45;4.20;;;;;;;16.95;100.00;101110.44;6156362;28;20047;-77
2022/06/27 04:20:43;;;;;;;7.30;4.35;;;;;;;17.04;100.00;101118.69;6174198;28;20077;-77
2022/06/27 04:23:44;;;;;;;5.88;3.75;;;;;;;17.08;100.00;101110.38;6174324;28;20101;-77
2022/06/27 04:26:47;;;;;;;5.85;3.42;;;;;;;16.98;100.00;101094.25;6174512;28;20054;-77
2022/06/27 04:29:49;;;;;;;8.30;5.15;;;;;;;17.08;100.00;101104.19;6173903;28;20061;-77
2022/06/27 04:32:50;;;;;;;9.07;4.82;;;;;;;17.02;100.00;101089.56;6174411;28;20057;-77
2022/06/27 04:35:51;;;;;;;6.25;4.35;;;;;;;16.99;100.00;101095.97;6173731;28;20058;-77
2022/06/27 04:38:53;;;;;;;7.45;4.78;;;;;;;16.96;100.00;101072.31;6174256;28;20070;-77
2022/06/27 04:41:55;;;;;;;6.18;4.20;;;;;;;16.96;100.00;101067.00;6173537;28;20056;-77
2022/06/27 04:44:57;;;;;;;6.93;4.28;;;;;;;16.92;100.00;101076.13;6173785;28;20615;-77
2022/06/27 04:48:00;;;;;;;6.40;4.10;;;;;;;16.96;100.00;101092.69;6180483;28;20038;-77
2022/06/27 04:51:02;;;;;;;8.27;4.70;;;;;;;17.02;100.00;101094.88;6181636;28;20392;-76
2022/06/27 04:54:03;;;;;;;6.68;4.50;;;;;;;17.06;100.00;101088.38;6166434;28;20089;-78
2022/06/27 04:57:07;;;;;;;8.25;5.38;;;;;;;17.05;100.00;101075.22;6162531;28;20059;-77
2022/06/27 05:00:11;;;;;;;7.75;5.22;;;;;;;16.99;100.00;101077.38;6153278;28;20472;-77
2022/06/27 05:03:12;;;;;;;10.20;5.90;;;;;;;16.97;100.00;101081.09;6161519;28;20055;-77
2022/06/27 05:06:14;;;;;;;8.88;4.88;;;;;;;16.93;100.00;101077.81;6149620;28;20144;-77
2022/06/27 05:09:16;;;;;;;10.77;5.57;;;;;;;16.95;100.00;101077.72;6162845;28;20058;-77
2022/06/27 05:12:19;;;;;;;8.50;4.43;;;;;;;16.94;100.00;101099.91;6160624;28;20047;-77
2022/06/27 05:15:20;;;;;;;7.07;4.60;;;;;;;17.06;100.00;101100.81;6149646;28;20055;-77
2022/06/27 05:18:21;;;;;;;9.57;5.38;;;;;;;16.97;100.00;101103.19;6163084;28;20058;-77
2022/06/27 05:21:23;;;;;;;12.43;5.90;;;;;;;16.98;100.00;101104.03;6173609;28;20057;-77
2022/06/27 05:24:24;;;;;;;7.57;5.35;;;;;;;16.99;100.00;101114.56;6173532;28;20047;-76
2022/06/27 05:27:27;;;;;;;8.85;4.78;;;;;;;17.01;100.00;101114.44;6173519;28;20058;-77
2022/06/27 05:30:30;;;;;;;9.65;4.22;;;;;;;16.98;100.00;101122.63;6173570;28;20062;-76
2022/06/27 05:33:31;;;;;;;8.43;4.95;;;;;;;16.96;100.00;101109.47;6173986;28;20051;-77
2022/06/27 05:36:33;;;;;;;9.20;4.35;;;;;;;16.91;100.00;101110.78;6173728;28;20043;-78
2022/06/27 05:39:35;;;;;;;7.80;4.57;;;;;;;16.91;100.00;101124.06;6173093;28;20087;-77
2022/06/27 05:42:38;;;;;;;10.43;6.10;;;;;;;16.93;100.00;101128.28;6172726;28;20055;-77
2022/06/27 05:45:39;;;;;;;8.10;5.20;;;;;;;16.93;100.00;101138.88;6163966;28;20055;-77
2022/06/27 05:48:41;;;;;;;7.45;5.22;;;;;;;16.99;100.00;101149.06;6180594;28;20046;-77
2022/06/27 05:51:43;;;;;;;9.23;4.97;;;;;;;17.11;100.00;101162.41;6197215;28;20136;-77
2022/06/27 05:54:45;;;;;;;8.02;4.35;;;;;;;17.20;100.00;101169.69;6187396;28;20054;-77
2022/06/27 05:57:48;;;;;;;11.57;6.10;;;;;;;17.17;100.00;101173.44;6165073;28;20050;-76
2022/06/27 06:00:50;;;;;;;9.88;5.82;;;;;;;17.18;100.00;101158.34;6166120;28;20571;-77
2022/06/27 06:03:52;;;;;;;9.88;6.50;;;;;;;17.11;100.00;101154.44;6173060;28;20061;-78
2022/06/27 06:06:54;;;;;;;9.00;5.10;;;;;;;17.04;100.00;101158.50;6173156;28;20043;-76
2022/06/27 06:09:55;;;;;;;9.20;4.97;;;;;;;17.02;100.00;101155.09;6172985;28;20090;-76
2022/06/27 06:12:58;;;;;;;10.23;5.45;;;;;;;16.97;100.00;101147.47;6173050;28;20533;-76
2022/06/27 06:16:01;;;;;;;6.93;4.43;;;;;;;16.95;100.00;101144.09;6172589;28;20137;-76
2022/06/27 06:19:02;;;;;;;7.22;4.97;;;;;;;16.92;100.00;101160.25;6191103;28;20134;-76
2022/06/27 06:22:04;;;;;;;9.80;6.03;;;;;;;16.91;100.00;101164.72;6201043;28;20399;-76
2022/06/27 06:25:07;;;;;;;8.18;4.85;;;;;;;16.87;100.00;101165.06;6201145;28;20062;-76
2022/06/27 06:28:10;;;;;;;8.70;5.93;;;;;;;16.83;100.00;101160.94;6201156;28;20136;-76
2022/06/27 06:31:15;;;;;;;10.15;5.80;;;;;;;16.85;100.00;101165.19;6201085;28;20051;-76
2022/06/27 06:34:17;;;;;;;10.68;5.35;;;;;;;16.96;100.00;101157.25;6200714;28;20057;-77
2022/06/27 06:37:18;;;;;;;7.78;5.28;;;;;;;16.97;100.00;101155.44;6201015;28;20188;-77
2022/06/27 06:40:20;;;;;;;7.18;4.53;;;;;;;17.02;100.00;101125.91;6187505;28;20047;-76
2022/06/27 06:43:23;;;;;;;11.30;5.50;;;;;;;17.05;100.00;101136.31;6176386;28;20395;-77
2022/06/27 06:46:24;;;;;;;10.75;6.00;;;;;;;17.00;100.00;101136.66;6176446;28;20051;-77
2022/06/27 06:49:26;;;;;;;8.65;4.78;;;;;;;17.10;100.00;101147.44;6177687;28;20050;-77
2022/06/27 06:52:30;;;;;;;6.32;4.07;;;;;;;17.12;100.00;101162.31;6176250;28;20055;-77
2022/06/27 06:55:32;;;;;;;7.53;4.47;;;;;;;17.18;100.00;101171.63;6176087;28;20047;-77
2022/06/27 06:58:35;;;;;;;9.02;5.57;;;;;;;17.21;100.00;101172.25;6176468;28;20113;-77
2022/06/27 07:01:37;;;;;;;8.55;5.50;;;;;;;17.23;100.00;101170.31;6175916;28;20119;-77
2022/06/27 07:04:39;;;;;;;9.57;5.68;;;;;;;17.19;100.00;101170.66;6176385;28;20414;-77
2022/06/27 07:07:42;;;;;;;11.05;6.15;;;;;;;17.16;100.00;101174.38;6176381;28;20057;-76
2022/06/27 07:10:44;;;;;;;10.13;5.93;;;;;;;17.24;100.00;101179.13;6175848;28;20442;-77
2022/06/27 07:13:46;;;;;;;9.35;5.57;;;;;;;17.18;100.00;101174.28;6176146;28;20051;-77
2022/06/27 07:16:48;;;;;;;10.35;5.45;;;;;;;17.20;100.00;101161.72;6179145;28;20490;-76
2022/06/27 07:19:50;;;;;;;8.43;5.60;;;;;;;17.21;100.00;101152.78;6199831;28;20050;-77
2022/06/27 07:22:51;;;;;;;9.18;5.20;;;;;;;17.22;100.00;101157.16;6200245;28;20557;-77
2022/06/27 07:25:53;;;;;;;9.43;5.50;;;;;;;17.22;100.00;101154.50;6199763;28;20050;-77
2022/06/27 07:28:56;;;;;;;10.73;5.53;;;;;;;17.19;100.00;101155.56;6200020;28;20051;-77
2022/06/27 07:31:58;;;;;;;10.70;5.25;;;;;;;17.24;100.00;101169.34;6199269;28;20065;-77
2022/06/27 07:35:00;;;;;;;12.95;6.22;;;;;;;17.27;100.00;101170.94;6199225;28;20073;-77
2022/06/27 07:38:02;;;;;;;7.72;4.13;;;;;;;17.30;100.00;101167.19;6199754;28;20046;-76
2022/06/27 07:41:04;;;;;;;11.15;6.25;;;;;;;17.39;100.00;101171.81;6199063;28;20062;-77
2022/06/27 07:44:07;;;;;;;10.75;5.72;;;;;;;17.36;100.00;101161.44;6199413;28;20050;-77
2022/06/27 07:47:09;;;;;;;12.20;7.68;;;;;;;17.34;100.00;101180.13;6197028;28;20422;-77
2022/06/27 07:50:11;;;;;;;11.05;7.22;;;;;;;17.15;100.00;101185.97;6188157;28;20046;-77
2022/06/27 07:53:15;;;;;;;8.80;5.97;;;;;;;17.07;100.00;101183.00;6172590;28;20051;-77
2022/06/27 07:56:17;;;;;;;8.00;4.28;;;;;;;17.04;100.00;101196.53;6166678;28;20058;-76
2022/06/27 07:59:20;;;;;;;9.63;5.38;;;;;;;16.85;100.00;101202.34;6164670;28;20046;-76
2022/06/27 08:02:22;;;;;;;10.18;6.55;;;;;;;16.72;100.00;101205.03;6168939;28;20083;-76
2022/06/27 08:05:24;;;;;;;10.98;6.00;;;;;;;16.65;100.00;101206.38;6172454;28;20054;-76
2022/06/27 08:08:26;;;;;;;9.20;5.90;;;;;;;16.59;100.00;101198.03;6166598;28;20047;-75
2022/06/27 08:11:29;;;;;;;11.80;6.38;;;;;;;16.66;100.00;101199.25;6174437;28;20055;-75
2022/06/27 08:14:32;;;;;;;20.38;7.45;;;;;;;16.62;100.00;101201.31;6174255;28;20058;-76
2022/06/27 08:17:33;;;;;;;9.23;5.82;;;;;;;16.63;100.00;101213.63;6183944;28;20046;-76
2022/06/27 08:20:35;;;;;;;13.13;8.23;;;;;;;16.63;100.00;101204.81;6198391;28;20057;-76
2022/06/27 08:23:37;;;;;;;12.93;6.90;;;;;;;16.70;100.00;101216.66;6198736;28;20521;-74
2022/06/27 08:26:39;;;;;;;13.18;6.95;;;;;;;16.76;100.00;101233.97;6184732;28;20046;-75
2022/06/27 08:29:43;;;;;;;11.57;5.68;;;;;;;16.78;100.00;101243.56;6166119;28;20050;-75
2022/06/27 08:32:45;;;;;;;8.50;5.45;;;;;;;16.76;100.00;101244.59;6172277;28;20133;-76
2022/06/27 08:35:48;;;;;;;10.30;5.68;;;;;;;16.67;100.00;101254.06;6174201;28;20076;-75
2022/06/27 08:38:50;;;;;;;10.98;5.63;;;;;;;16.65;100.00;101234.72;6173322;28;20042;-77
2022/06/27 08:41:52;;;;;;;10.25;4.85;;;;;;;16.59;100.00;101221.91;6168325;28;20047;-76
2022/06/27 08:44:55;;;;;;;9.57;5.05;;;;;;;16.70;100.00;101224.63;6173398;28;20391;-75
2022/06/27 08:47:58;;;;;;;11.85;5.60;;;;;;;16.69;100.00;101222.94;6175725;28;20059;-76
2022/06/27 08:51:05;;;;;;;10.32;5.88;;;;;;;16.77;100.00;101225.09;6173646;28;20058;-77
2022/06/27 08:54:07;;;;;;;11.00;6.07;;;;;;;16.73;100.00;101217.34;6173614;28;20059;-75
2022/06/27 08:57:09;;;;;;;12.32;6.63;;;;;;;16.76;100.00;101213.63;6174018;28;20486;-76
2022/06/27 09:00:15;;;;;;;15.50;6.22;;;;;;;16.75;100.00;101214.56;6173489;28;20058;-75
2022/06/27 09:03:19;;;;;;;12.25;4.97;;;;;;;16.79;100.00;101208.06;6173915;28;20050;-76
2022/06/27 09:06:20;;;;;;;11.63;6.05;;;;;;;16.85;100.00;101215.63;6152281;28;20055;-75
2022/06/27 09:09:24;;;;;;;9.98;5.30;;;;;;;16.95;100.00;101223.75;6149827;29;20515;-74
2022/06/27 09:12:27;;;;;;;7.88;4.55;;;;;;;17.06;100.00;101231.78;6149422;29;20066;-76
2022/06/27 09:15:46;;;;;;;8.05;4.70;;;;;;;16.99;100.00;101239.34;6149461;29;20495;-76
2022/06/27 09:18:47;;;;;;;13.77;6.32;;;;;;;16.92;100.00;101239.91;6172472;28;20054;-75
2022/06/27 09:22:15;;;;;;;9.52;5.32;;;;;;;16.86;100.00;101227.09;6172943;28;20047;-76
2022/06/27 09:25:20;;;;;;;9.15;5.15;;;;;;;16.87;100.00;101234.94;6173118;28;20201;-75
2022/06/27 09:28:23;;;;;;;15.30;6.85;;;;;;;16.90;100.00;101237.38;6173775;28;20053;-76
2022/06/27 09:31:31;;;;;;;8.82;4.72;;;;;;;16.96;100.00;101228.09;6172968;28;20058;-75
2022/06/27 09:34:33;;;;;;;10.00;5.68;;;;;;;17.03;100.00;101218.72;6173290;28;20058;-75
2022/06/27 09:37:53;;;;;;;11.27;6.78;;;;;;;17.09;100.00;101220.94;6173154;28;20074;-75
2022/06/27 09:40:55;;;;;;;15.80;6.68;;;;;;;17.20;100.00;101228.13;6173052;28;20050;-76
2022/06/27 09:44:01;;;;;;;11.85;5.85;;;;;;;17.24;100.00;101232.25;6172906;28;20058;-75
2022/06/27 09:47:11;;;;;;;11.18;6.07;;;;;;;17.31;100.00;101227.34;6174634;28;20043;-75
2022/06/27 09:50:13;;;;;;;10.70;6.47;;;;;;;17.29;100.00;101222.13;6172799;28;20061;-76
2022/06/27 09:53:14;;;;;;;11.23;6.18;;;;;;;17.37;100.00;101232.19;6173880;28;20059;-76
2022/06/27 09:56:18;;;;;;;13.73;7.70;;;;;;;17.51;100.00;101229.34;6177418;28;20055;-75
2022/06/27 09:59:20;;;;;;;14.82;6.80;;;;;;;17.65;100.00;101237.13;6177983;28;20137;-75
2022/06/27 10:02:23;;;;;;;12.63;6.07;;;;;;;17.75;100.00;101218.72;6177209;28;20055;-75
2022/06/27 10:05:24;;;;;;;11.95;6.07;;;;;;;17.92;100.00;101206.78;6177297;28;20053;-75
2022/06/27 10:08:25;;;;;;;13.45;7.32;;;;;;;18.12;100.00;101210.56;6177645;28;20157;-75
2022/06/27 10:11:27;;;;;;;18.67;8.43;;;;;;;18.11;100.00;101219.50;6177393;28;20566;-75
2022/06/27 10:14:28;;;;;;;9.90;5.35;;;;;;;18.25;100.00;101211.31;6177125;28;20046;-73
2022/06/27 10:17:33;;;;;;;13.15;7.18;;;;;;;18.31;100.00;101215.31;6190853;28;20069;-74
2022/06/27 10:20:37;;;;;;;13.13;6.63;;;;;;;18.42;100.00;101220.63;6177278;28;20069;-76
2022/06/27 10:23:47;;;;;;;13.65;7.57;;;;;;;18.46;100.00;101236.25;6176769;28;20054;-75
2022/06/27 10:26:51;;;;;;;14.40;6.50;;;;;;;18.45;100.00;101241.69;6175914;28;20059;-75
2022/06/27 10:29:52;;;;;;;12.38;5.57;;;;;;;18.44;100.00;101243.50;6176056;28;20054;-75
2022/06/27 10:32:56;;;;;;;11.88;6.35;;;;;;;18.43;100.00;101239.13;6177170;28;20073;-75
2022/06/27 10:36:10;;;;;;;14.35;7.18;;;;;;;18.33;100.00;101247.97;6176309;28;20051;-76
2022/06/27 10:39:19;;;;;;;12.15;6.40;;;;;;;18.32;100.00;101246.28;6176986;28;20509;-75
2022/06/27 10:42:48;;;;;;;10.90;5.80;;;;;;;18.38;100.00;101257.28;6175210;28;20427;-75
2022/06/27 10:45:49;;;;;;;21.00;7.80;;;;;;;18.42;100.00;101255.22;6174791;28;20047;-77
2022/06/27 10:48:53;;;;;;;18.95;8.43;;;;;;;18.49;100.00;101264.44;6176378;28;20051;-75
2022/06/27 10:52:31;;;;;;;22.80;8.30;;;;;;;18.50;100.00;101260.81;6176074;28;20058;-75
2022/06/27 10:55:33;;;;;;;17.83;7.72;;;;;;;18.45;100.00;101250.53;6176227;28;20054;-75
2022/06/27 10:58:35;;;;;;;15.75;7.68;;;;;;;18.48;100.00;101260.06;6176233;28;20071;-75
2022/06/27 11:01:36;;;;;;;16.85;7.78;;;;;;;18.39;100.00;101264.28;6176260;28;20047;-76
2022/06/27 11:04:39;;;;;;;14.07;8.63;;;;;;;18.38;100.00;101259.94;6175404;28;20058;-75
2022/06/27 11:07:40;;;;;;;18.42;8.35;;;;;;;18.47;100.00;101259.22;6152135;29;20054;-76
2022/06/27 11:10:43;;;;;;;17.80;9.40;;;;;;;18.48;100.00;101263.56;6151768;29;20058;-76
2022/06/27 11:13:47;;;;;;;22.40;9.27;;;;;;;18.50;100.00;101260.81;6151760;29;20058;-76
2022/06/27 11:16:48;;;;;;;19.40;10.85;;;;;;;18.59;100.00;101253.91;6173186;28;20050;-76
2022/06/27 11:20:09;;;;;;;28.02;12.07;;;;;;;18.68;100.00;101258.50;6199540;28;20050;-75
2022/06/27 11:23:11;;;;;;;21.33;9.07;;;;;;;18.72;100.00;101250.19;6200453;28;20054;-76
2022/06/27 11:26:13;;;;;;;21.98;11.00;;;;;;;18.79;100.00;101253.19;6191826;28;20498;-76
2022/06/27 11:32:36;;;;;;;26.02;11.77;;;;;;;18.86;100.00;101273.06;6184839;28;20050;-76
2022/06/27 11:35:39;;;;;;;25.63;11.80;;;;;;;18.74;100.00;101285.50;6188477;28;20058;-75
2022/06/27 11:38:46;;;;;;;23.15;12.43;;;;;;;18.71;100.00;101280.44;6196055;28;20049;-74
2022/06/27 11:41:47;;;;;;;25.55;13.20;;;;;;;18.74;100.00;101282.00;6174861;28;20054;-74
2022/06/27 11:45:07;;;;;;;29.25;13.18;;;;;;;18.69;100.00;101270.88;6174848;28;20054;-74
2022/06/27 11:48:14;;;;;;;25.65;12.75;;;;;;;18.60;100.00;101255.59;6176390;28;20047;-75
2022/06/27 11:51:27;;;;;;;23.50;12.95;;;;;;;18.52;100.00;101248.22;6174782;28;20101;-75
2022/06/27 11:54:37;;;;;;;21.15;11.35;;;;;;;18.50;100.00;101252.81;6174636;28;20130;-75
2022/06/27 11:57:44;;;;;;;20.83;11.90;;;;;;;18.46;100.00;101251.38;6175031;28;20054;-74
2022/06/27 12:00:45;;;;;;;22.13;11.68;;;;;;;18.45;100.00;101255.84;6173078;28;20446;-75
2022/06/27 12:04:21;;;;;;;22.45;12.15;;;;;;;18.44;100.00;101271.91;6173703;28;20047;-75
2022/06/27 12:07:24;;;;;;;20.35;10.38;;;;;;;18.41;100.00;101269.50;6077179;29;20048;-74
2022/06/27 12:14:05;;;;;;;22.17;9.75;;;;;;;18.43;100.00;101272.88;6162933;28;20081;-74
2022/06/27 12:17:07;;;;;;;14.82;8.38;;;;;;;18.54;100.00;101266.75;6186227;28;20050;-74
2022/06/27 12:20:09;;;;;;;17.17;7.80;;;;;;;18.65;100.00;101256.91;6198211;28;20053;-75
2022/06/27 12:23:12;;;;;;;13.80;7.70;;;;;;;18.75;100.00;101262.38;6192945;28;20058;-75
2022/06/27 12:26:13;;;;;;;14.77;8.95;;;;;;;18.85;100.00;101262.50;6174313;28;20054;-75
2022/06/27 12:29:15;;;;;;;15.45;8.32;;;;;;;18.95;100.00;101261.66;6174484;28;20490;-76
2022/06/27 12:32:17;;;;;;;20.17;9.70;;;;;;;19.08;100.00;101276.66;6165622;28;20051;-76
2022/06/27 12:35:18;;;;;;;14.63;8.38;;;;;;;19.24;100.00;101280.59;6167305;28;20589;-76
2022/06/27 12:38:21;;;;;;;13.40;7.07;;;;;;;19.37;100.00;101271.63;6172701;28;20050;-76
2022/06/27 12:41:23;;;;;;;14.27;8.02;;;;;;;19.45;100.00;101262.03;6172012;28;20051;-76
2022/06/27 12:44:25;;;;;;;12.77;8.07;;;;;;;19.52;100.00;101257.84;6169804;28;20046;-76
2022/06/27 12:47:29;;;;;;;13.23;7.80;;;;;;;19.74;100.00;101259.63;6177544;28;20494;-76
2022/06/27 12:50:30;;;;;;;12.23;7.63;;;;;;;19.75;100.00;101276.47;6195876;28;20049;-76
2022/06/27 12:53:33;;;;;;;11.70;7.32;;;;;;;19.67;100.00;101253.13;6173374;28;20062;-76
2022/06/27 12:56:35;;;;;;;10.75;6.28;;;;;;;19.67;100.00;101245.13;6173589;28;20499;-75
2022/06/27 12:59:36;;;;;;;12.88;7.30;;;;;;;19.71;100.00;101272.34;6158177;28;20415;-76
2022/06/27 13:02:37;;;;;;;11.93;6.95;;;;;;;19.61;100.00;101274.09;6149684;29;20054;-75
2022/06/27 13:05:38;;;;;;;11.35;6.45;;;;;;;19.48;100.00;101282.22;6149533;29;20062;-76
2022/06/27 13:08:41;;;;;;;12.32;6.65;;;;;;;19.39;100.00;101294.50;6157601;28;20422;-76
2022/06/27 13:11:43;;;;;;;12.07;7.40;;;;;;;19.30;100.00;101287.25;6149538;29;20141;-76
2022/06/27 13:14:45;;;;;;;11.90;7.38;;;;;;;19.29;100.00;101285.56;6149149;29;20055;-76
2022/06/27 13:17:46;;;;;;;14.00;8.75;;;;;;;19.27;100.00;101290.19;6190968;28;20502;-77
2022/06/27 13:20:47;;;;;;;15.43;9.60;;;;;;;19.22;100.00;101292.38;6197107;28;20046;-75
2022/06/27 13:23:51;;;;;;;13.27;7.22;;;;;;;19.19;100.00;101295.28;6173214;28;20050;-76
2022/06/27 13:26:53;;;;;;;19.20;8.75;;;;;;;19.14;100.00;101293.00;6171960;28;20517;-74
2022/06/27 13:29:54;;;;;;;16.92;8.65;;;;;;;19.09;100.00;101286.34;6174924;28;20485;-76
2022/06/27 13:32:55;;;;;;;15.68;9.48;;;;;;;19.06;100.00;101291.91;6178178;28;20061;-76
2022/06/27 13:35:57;;;;;;;15.23;8.77;;;;;;;18.97;100.00;101288.16;6177965;28;20046;-76
2022/06/27 13:38:59;;;;;;;13.98;7.80;;;;;;;18.97;100.00;101293.50;6178249;28;20491;-75
2022/06/27 13:42:03;;;;;;;13.88;7.80;;;;;;;18.97;100.00;101296.16;6177563;28;20054;-75
2022/06/27 13:45:06;;;;;;;15.93;9.65;;;;;;;18.94;100.00;101297.25;6178237;28;20057;-76
2022/06/27 13:48:08;;;;;;;16.17;9.85;;;;;;;18.97;100.00;101297.00;6178168;28;20058;-76
2022/06/27 13:51:09;;;;;;;17.83;9.48;;;;;;;18.99;100.00;101304.88;6177950;28;20502;-75
2022/06/27 13:54:12;;;;;;;13.48;9.07;;;;;;;18.98;100.00;101303.16;6177779;28;20055;-76
2022/06/27 13:57:14;;;;;;;15.90;9.48;;;;;;;18.98;100.00;101295.19;6178055;28;20057;-75
2022/06/27 14:00:16;;;;;;;16.83;9.82;;;;;;;18.97;100.00;101302.31;6177407;28;20113;-76
2022/06/27 14:03:18;;;;;;;14.40;8.95;;;;;;;18.93;100.00;101305.34;6177679;28;20050;-76
2022/06/27 14:09:40;;;;;;;16.58;10.07;;;;;;;18.88;100.00;101284.41;6177515;28;20051;-76